KBXA/BXA METAR and TAF weather

Enter ICAO airport designator
Station Type Date Time Source
KBXA METAR 2018/09/21 23:15 UTC NOAA

KBXA 212315Z AUTO 00000KT 10SM SCT080 SCT100 OVC120 27/23 A3000 RMK AO2 LTG DSNT NW T02670233


Station Type Date Time Source
KBXA Decoded METAR 2018/09/21 23:15 UTC NOAA

Bogalusa, George R Carr Memorial Air Field, LA, United States (KBXA) 30-48-49N 089-51-53W
Sep 21, 2018 - 07:15 PM EDT / 2018.09.21 2315 UTC
Wind: Calm:0
Visibility: 10 mile(s):0
Sky conditions: overcast
Weather: Lightning observed
Temperature: 80.1 F (26.7 C)
Dew Point: 73.9 F (23.3 C)
Relative Humidity: 81%
Pressure (altimeter): 30 in. Hg (1015 hPa)
ob: KBXA 212315Z AUTO 00000KT 10SM SCT080 SCT100 OVC120 27/23 A3000 RMK AO2 LTG DSNT NW T02670233
cycle: 23

Station Type Date Time Source
KBXA TAF UTC NOAA

Error!


Example: see airport list